sensor_id;sensor_type;location;lat;lon;timestamp;temperature;humidity
58153;DHT22;43967;51.634;5.566;2022-08-02T00:01:23;23.80;56.30
58153;DHT22;43967;51.634;5.566;2022-08-02T00:06:26;23.80;56.40
58153;DHT22;43967;51.634;5.566;2022-08-02T00:11:27;23.80;56.40
58153;DHT22;43967;51.634;5.566;2022-08-02T00:16:28;23.80;56.40
58153;DHT22;43967;51.634;5.566;2022-08-02T00:21:29;23.80;56.40
58153;DHT22;43967;51.634;5.566;2022-08-02T00:26:30;23.80;56.40
58153;DHT22;43967;51.634;5.566;2022-08-02T00:31:34;23.80;56.50
58153;DHT22;43967;51.634;5.566;2022-08-02T00:36:35;23.80;56.40
58153;DHT22;43967;51.634;5.566;2022-08-02T00:41:44;23.80;56.50
58153;DHT22;43967;51.634;5.566;2022-08-02T00:46:46;23.80;56.40
58153;DHT22;43967;51.634;5.566;2022-08-02T00:51:47;23.80;56.50
58153;DHT22;43967;51.634;5.566;2022-08-02T00:56:48;23.80;56.50
58153;DHT22;43967;51.634;5.566;2022-08-02T01:01:49;23.80;56.50
58153;DHT22;43967;51.634;5.566;2022-08-02T01:06:50;23.80;56.50
58153;DHT22;43967;51.634;5.566;2022-08-02T01:11:51;23.80;56.50
58153;DHT22;43967;51.634;5.566;2022-08-02T01:16:59;23.80;57.20
58153;DHT22;43967;51.634;5.566;2022-08-02T01:27:44;23.70;56.50
58153;DHT22;43967;51.634;5.566;2022-08-02T01:32:51;23.80;56.50
58153;DHT22;43967;51.634;5.566;2022-08-02T01:38:28;23.80;56.60
58153;DHT22;43967;51.634;5.566;2022-08-02T01:43:33;23.70;56.50
58153;DHT22;43967;51.634;5.566;2022-08-02T01:48:36;23.80;56.60
58153;DHT22;43967;51.634;5.566;2022-08-02T01:53:40;23.70;56.50
58153;DHT22;43967;51.634;5.566;2022-08-02T01:58:42;23.70;56.60
58153;DHT22;43967;51.634;5.566;2022-08-02T02:03:47;23.70;56.50
58153;DHT22;43967;51.634;5.566;2022-08-02T02:08:49;23.70;56.60
58153;DHT22;43967;51.634;5.566;2022-08-02T02:13:50;23.70;56.60
58153;DHT22;43967;51.634;5.566;2022-08-02T02:18:52;23.70;56.60
58153;DHT22;43967;51.634;5.566;2022-08-02T02:23:54;23.70;56.60
58153;DHT22;43967;51.634;5.566;2022-08-02T02:28:56;23.70;56.50
58153;DHT22;43967;51.634;5.566;2022-08-02T02:34:02;23.70;56.60
58153;DHT22;43967;51.634;5.566;2022-08-02T02:39:06;23.70;56.60
58153;DHT22;43967;51.634;5.566;2022-08-02T02:44:12;23.70;56.60
58153;DHT22;43967;51.634;5.566;2022-08-02T02:49:14;23.70;56.60
58153;DHT22;43967;51.634;5.566;2022-08-02T02:54:17;23.70;56.60
58153;DHT22;43967;51.634;5.566;2022-08-02T02:59:18;23.70;56.60
58153;DHT22;43967;51.634;5.566;2022-08-02T03:04:20;23.70;56.70
58153;DHT22;43967;51.634;5.566;2022-08-02T03:09:21;23.70;56.70
58153;DHT22;43967;51.634;5.566;2022-08-02T03:14:22;23.70;56.70
58153;DHT22;43967;51.634;5.566;2022-08-02T03:19:24;23.70;56.70
58153;DHT22;43967;51.634;5.566;2022-08-02T03:24:25;23.70;56.80
58153;DHT22;43967;51.634;5.566;2022-08-02T03:29:26;23.70;56.80
58153;DHT22;43967;51.634;5.566;2022-08-02T03:34:27;23.70;56.80
58153;DHT22;43967;51.634;5.566;2022-08-02T03:39:31;23.70;57.50
58153;DHT22;43967;51.634;5.566;2022-08-02T03:44:33;23.70;56.80
58153;DHT22;43967;51.634;5.566;2022-08-02T03:49:35;23.60;56.70
58153;DHT22;43967;51.634;5.566;2022-08-02T03:54:38;23.70;56.80
58153;DHT22;43967;51.634;5.566;2022-08-02T03:59:44;23.70;56.80
58153;DHT22;43967;51.634;5.566;2022-08-02T04:04:45;23.60;56.80
58153;DHT22;43967;51.634;5.566;2022-08-02T04:09:46;23.60;56.80
58153;DHT22;43967;51.634;5.566;2022-08-02T04:14:48;23.60;56.80
58153;DHT22;43967;51.634;5.566;2022-08-02T04:19:52;23.60;56.80
58153;DHT22;43967;51.634;5.566;2022-08-02T04:24:59;23.60;56.80
58153;DHT22;43967;51.634;5.566;2022-08-02T04:30:03;23.60;56.90
58153;DHT22;43967;51.634;5.566;2022-08-02T04:35:06;23.60;57.00
58153;DHT22;43967;51.634;5.566;2022-08-02T04:40:09;23.60;56.90
58153;DHT22;43967;51.634;5.566;2022-08-02T04:45:10;23.60;57.00
58153;DHT22;43967;51.634;5.566;2022-08-02T04:50:12;23.30;54.50
58153;DHT22;43967;51.634;5.566;2022-08-02T04:55:16;21.60;56.40
58153;DHT22;43967;51.634;5.566;2022-08-02T05:00:17;20.70;58.50
58153;DHT22;43967;51.634;5.566;2022-08-02T05:05:18;20.20;61.10
58153;DHT22;43967;51.634;5.566;2022-08-02T05:10:19;19.80;62.00
58153;DHT22;43967;51.634;5.566;2022-08-02T05:15:22;19.70;61.80
58153;DHT22;43967;51.634;5.566;2022-08-02T05:20:23;19.60;62.50
58153;DHT22;43967;51.634;5.566;2022-08-02T05:25:24;19.60;62.40
58153;DHT22;43967;51.634;5.566;2022-08-02T05:30:26;19.60;62.60
58153;DHT22;43967;51.634;5.566;2022-08-02T05:35:27;19.90;62.60
58153;DHT22;43967;51.634;5.566;2022-08-02T05:40:28;20.10;63.00
58153;DHT22;43967;51.634;5.566;2022-08-02T05:45:33;20.10;63.10
58153;DHT22;43967;51.634;5.566;2022-08-02T05:50:38;20.20;63.80
58153;DHT22;43967;51.634;5.566;2022-08-02T05:55:47;20.50;63.10
58153;DHT22;43967;51.634;5.566;2022-08-02T06:00:54;20.60;64.30
58153;DHT22;43967;51.634;5.566;2022-08-02T06:06:10;20.70;63.10
58153;DHT22;43967;51.634;5.566;2022-08-02T06:11:14;20.90;63.20
58153;DHT22;43967;51.634;5.566;2022-08-02T06:16:16;21.10;62.80
58153;DHT22;43967;51.634;5.566;2022-08-02T06:21:20;21.30;62.40
58153;DHT22;43967;51.634;5.566;2022-08-02T06:26:27;21.40;62.40
58153;DHT22;43967;51.634;5.566;2022-08-02T06:31:28;21.50;62.90
58153;DHT22;43967;51.634;5.566;2022-08-02T06:36:45;21.50;63.00
58153;DHT22;43967;51.634;5.566;2022-08-02T06:42:01;21.60;63.50
58153;DHT22;43967;51.634;5.566;2022-08-02T06:47:13;21.70;63.60
58153;DHT22;43967;51.634;5.566;2022-08-02T06:52:14;21.90;63.40
58153;DHT22;43967;51.634;5.566;2022-08-02T06:57:18;22.00;63.10
58153;DHT22;43967;51.634;5.566;2022-08-02T07:02:39;22.10;62.90
58153;DHT22;43967;51.634;5.566;2022-08-02T07:07:48;22.20;62.70
58153;DHT22;43967;51.634;5.566;2022-08-02T07:13:01;22.40;62.70
58153;DHT22;43967;51.634;5.566;2022-08-02T07:18:03;22.40;62.80
58153;DHT22;43967;51.634;5.566;2022-08-02T07:23:04;22.60;62.80
58153;DHT22;43967;51.634;5.566;2022-08-02T07:28:06;22.70;63.10
58153;DHT22;43967;51.634;5.566;2022-08-02T07:33:09;22.80;63.30
58153;DHT22;43967;51.634;5.566;2022-08-02T07:38:10;22.90;63.40
58153;DHT22;43967;51.634;5.566;2022-08-02T07:43:11;23.00;63.10
58153;DHT22;43967;51.634;5.566;2022-08-02T07:48:12;23.00;63.40
58153;DHT22;43967;51.634;5.566;2022-08-02T07:53:13;23.10;63.50
58153;DHT22;43967;51.634;5.566;2022-08-02T07:58:14;23.20;63.50
58153;DHT22;43967;51.634;5.566;2022-08-02T08:03:16;23.20;63.40
58153;DHT22;43967;51.634;5.566;2022-08-02T08:08:17;23.30;63.40
58153;DHT22;43967;51.634;5.566;2022-08-02T08:13:18;23.40;63.20
58153;DHT22;43967;51.634;5.566;2022-08-02T08:18:20;23.50;63.20
58153;DHT22;43967;51.634;5.566;2022-08-02T08:23:21;23.60;63.30
58153;DHT22;43967;51.634;5.566;2022-08-02T08:28:22;23.70;62.50
58153;DHT22;43967;51.634;5.566;2022-08-02T08:33:45;23.70;62.40
58153;DHT22;43967;51.634;5.566;2022-08-02T08:38:45;23.80;62.60
58153;DHT22;43967;51.634;5.566;2022-08-02T08:43:48;23.80;62.00
58153;DHT22;43967;51.634;5.566;2022-08-02T08:54:29;23.90;60.90
58153;DHT22;43967;51.634;5.566;2022-08-02T08:59:33;23.90;59.60
58153;DHT22;43967;51.634;5.566;2022-08-02T09:04:35;24.00;60.00
58153;DHT22;43967;51.634;5.566;2022-08-02T09:09:36;24.00;59.70
58153;DHT22;43967;51.634;5.566;2022-08-02T09:14:37;24.00;59.40
58153;DHT22;43967;51.634;5.566;2022-08-02T09:19:38;24.10;59.00
58153;DHT22;43967;51.634;5.566;2022-08-02T09:24:45;24.10;59.30
58153;DHT22;43967;51.634;5.566;2022-08-02T09:29:51;24.10;59.40
58153;DHT22;43967;51.634;5.566;2022-08-02T09:34:55;24.10;59.70
58153;DHT22;43967;51.634;5.566;2022-08-02T09:39:58;24.10;59.70
58153;DHT22;43967;51.634;5.566;2022-08-02T09:45:01;24.10;59.70
58153;DHT22;43967;51.634;5.566;2022-08-02T09:50:02;24.20;59.80
58153;DHT22;43967;51.634;5.566;2022-08-02T09:55:04;24.20;59.80
58153;DHT22;43967;51.634;5.566;2022-08-02T10:00:06;24.20;59.70
58153;DHT22;43967;51.634;5.566;2022-08-02T10:05:16;24.30;59.70
58153;DHT22;43967;51.634;5.566;2022-08-02T10:10:17;24.30;59.80
58153;DHT22;43967;51.634;5.566;2022-08-02T10:15:18;24.30;59.70
58153;DHT22;43967;51.634;5.566;2022-08-02T10:20:20;24.30;59.70
58153;DHT22;43967;51.634;5.566;2022-08-02T10:25:21;24.30;59.60
58153;DHT22;43967;51.634;5.566;2022-08-02T10:30:23;24.40;59.10
58153;DHT22;43967;51.634;5.566;2022-08-02T10:35:27;24.40;59.20
58153;DHT22;43967;51.634;5.566;2022-08-02T10:40:53;24.40;58.70
58153;DHT22;43967;51.634;5.566;2022-08-02T10:57:12;24.40;58.00
58153;DHT22;43967;51.634;5.566;2022-08-02T11:02:32;24.40;58.10
58153;DHT22;43967;51.634;5.566;2022-08-02T11:07:37;24.50;57.90
58153;DHT22;43967;51.634;5.566;2022-08-02T11:12:58;24.50;57.50
58153;DHT22;43967;51.634;5.566;2022-08-02T11:17:59;24.50;57.40
58153;DHT22;43967;51.634;5.566;2022-08-02T11:23:54;24.50;57.60
58153;DHT22;43967;51.634;5.566;2022-08-02T11:28:48;24.50;57.60
58153;DHT22;43967;51.634;5.566;2022-08-02T11:33:50;24.50;57.60
58153;DHT22;43967;51.634;5.566;2022-08-02T11:39:10;24.50;57.40
58153;DHT22;43967;51.634;5.566;2022-08-02T11:44:11;24.50;56.90
58153;DHT22;43967;51.634;5.566;2022-08-02T11:49:16;24.50;57.00
58153;DHT22;43967;51.634;5.566;2022-08-02T11:54:29;24.50;56.70
58153;DHT22;43967;51.634;5.566;2022-08-02T11:59:30;24.60;56.80
58153;DHT22;43967;51.634;5.566;2022-08-02T12:04:34;24.60;56.90
58153;DHT22;43967;51.634;5.566;2022-08-02T12:09:36;24.60;56.60
58153;DHT22;43967;51.634;5.566;2022-08-02T12:14:41;24.60;56.40
58153;DHT22;43967;51.634;5.566;2022-08-02T12:19:44;24.60;56.30
58153;DHT22;43967;51.634;5.566;2022-08-02T12:24:53;24.60;56.00
58153;DHT22;43967;51.634;5.566;2022-08-02T12:30:00;24.60;56.30
58153;DHT22;43967;51.634;5.566;2022-08-02T12:35:07;24.70;56.40
58153;DHT22;43967;51.634;5.566;2022-08-02T12:40:25;24.60;56.30
58153;DHT22;43967;51.634;5.566;2022-08-02T12:45:44;24.60;56.30
58153;DHT22;43967;51.634;5.566;2022-08-02T12:50:45;24.60;56.10
58153;DHT22;43967;51.634;5.566;2022-08-02T12:55:52;24.70;56.30
58153;DHT22;43967;51.634;5.566;2022-08-02T13:00:59;24.70;56.20
58153;DHT22;43967;51.634;5.566;2022-08-02T13:06:01;24.70;56.20
58153;DHT22;43967;51.634;5.566;2022-08-02T13:11:07;24.70;56.10
58153;DHT22;43967;51.634;5.566;2022-08-02T13:16:09;24.80;56.10
58153;DHT22;43967;51.634;5.566;2022-08-02T13:21:11;24.80;56.20
58153;DHT22;43967;51.634;5.566;2022-08-02T13:26:12;24.80;56.20
58153;DHT22;43967;51.634;5.566;2022-08-02T13:31:13;24.80;56.20
58153;DHT22;43967;51.634;5.566;2022-08-02T13:36:14;24.80;56.10
58153;DHT22;43967;51.634;5.566;2022-08-02T13:41:15;24.80;56.00
58153;DHT22;43967;51.634;5.566;2022-08-02T13:46:16;24.90;55.90
58153;DHT22;43967;51.634;5.566;2022-08-02T13:51:18;24.90;55.70
58153;DHT22;43967;51.634;5.566;2022-08-02T13:56:19;24.90;55.60
58153;DHT22;43967;51.634;5.566;2022-08-02T14:01:20;24.90;55.40
58153;DHT22;43967;51.634;5.566;2022-08-02T14:06:22;24.90;55.40
58153;DHT22;43967;51.634;5.566;2022-08-02T14:11:23;24.90;55.40
58153;DHT22;43967;51.634;5.566;2022-08-02T14:16:24;25.00;55.00
58153;DHT22;43967;51.634;5.566;2022-08-02T14:21:25;24.90;54.90
58153;DHT22;43967;51.634;5.566;2022-08-02T14:26:26;24.90;55.00
58153;DHT22;43967;51.634;5.566;2022-08-02T14:31:27;24.90;54.90
58153;DHT22;43967;51.634;5.566;2022-08-02T14:36:28;24.90;55.10
58153;DHT22;43967;51.634;5.566;2022-08-02T14:41:29;24.90;54.90
58153;DHT22;43967;51.634;5.566;2022-08-02T14:46:31;25.00;55.20
58153;DHT22;43967;51.634;5.566;2022-08-02T14:51:36;24.90;55.20
58153;DHT22;43967;51.634;5.566;2022-08-02T14:56:37;24.90;55.30
58153;DHT22;43967;51.634;5.566;2022-08-02T15:01:38;24.90;55.60
58153;DHT22;43967;51.634;5.566;2022-08-02T15:06:39;25.00;55.70
58153;DHT22;43967;51.634;5.566;2022-08-02T15:11:40;25.00;55.80
58153;DHT22;43967;51.634;5.566;2022-08-02T15:16:41;25.10;56.00
58153;DHT22;43967;51.634;5.566;2022-08-02T15:21:43;25.10;56.00
58153;DHT22;43967;51.634;5.566;2022-08-02T15:26:44;25.10;56.00
58153;DHT22;43967;51.634;5.566;2022-08-02T15:31:46;25.10;56.10
58153;DHT22;43967;51.634;5.566;2022-08-02T15:36:48;25.20;56.40
58153;DHT22;43967;51.634;5.566;2022-08-02T15:41:49;25.20;56.70
58153;DHT22;43967;51.634;5.566;2022-08-02T15:46:50;25.30;57.10
58153;DHT22;43967;51.634;5.566;2022-08-02T15:51:53;25.30;57.00
58153;DHT22;43967;51.634;5.566;2022-08-02T15:57:17;25.40;56.80
58153;DHT22;43967;51.634;5.566;2022-08-02T16:02:28;25.40;56.50
58153;DHT22;43967;51.634;5.566;2022-08-02T16:07:32;25.60;56.40
58153;DHT22;43967;51.634;5.566;2022-08-02T16:12:33;25.60;56.10
58153;DHT22;43967;51.634;5.566;2022-08-02T16:17:35;25.60;56.00
58153;DHT22;43967;51.634;5.566;2022-08-02T16:22:36;25.60;55.60
58153;DHT22;43967;51.634;5.566;2022-08-02T16:27:37;25.60;55.70
58153;DHT22;43967;51.634;5.566;2022-08-02T16:32:38;25.60;55.70
58153;DHT22;43967;51.634;5.566;2022-08-02T16:37:39;25.50;55.60
58153;DHT22;43967;51.634;5.566;2022-08-02T16:42:40;25.60;55.70
58153;DHT22;43967;51.634;5.566;2022-08-02T16:47:41;25.60;55.90
58153;DHT22;43967;51.634;5.566;2022-08-02T16:52:42;25.60;55.80
58153;DHT22;43967;51.634;5.566;2022-08-02T16:57:43;25.60;55.60
58153;DHT22;43967;51.634;5.566;2022-08-02T17:02:45;25.60;55.90
58153;DHT22;43967;51.634;5.566;2022-08-02T17:07:46;25.60;55.80
58153;DHT22;43967;51.634;5.566;2022-08-02T17:12:48;25.60;56.00
58153;DHT22;43967;51.634;5.566;2022-08-02T17:17:49;25.70;56.10
58153;DHT22;43967;51.634;5.566;2022-08-02T17:22:51;25.70;56.00
58153;DHT22;43967;51.634;5.566;2022-08-02T17:27:53;25.60;56.30
58153;DHT22;43967;51.634;5.566;2022-08-02T17:32:55;25.60;56.60
58153;DHT22;43967;51.634;5.566;2022-08-02T17:37:56;25.60;56.60
58153;DHT22;43967;51.634;5.566;2022-08-02T17:42:57;25.60;56.90
58153;DHT22;43967;51.634;5.566;2022-08-02T17:47:58;25.60;56.90
58153;DHT22;43967;51.634;5.566;2022-08-02T17:52:59;25.60;57.20
58153;DHT22;43967;51.634;5.566;2022-08-02T17:58:00;25.60;57.30
58153;DHT22;43967;51.634;5.566;2022-08-02T18:03:03;25.70;57.70
58153;DHT22;43967;51.634;5.566;2022-08-02T18:08:04;25.70;57.90
58153;DHT22;43967;51.634;5.566;2022-08-02T18:13:05;25.60;58.00
58153;DHT22;43967;51.634;5.566;2022-08-02T18:18:06;25.70;58.00
58153;DHT22;43967;51.634;5.566;2022-08-02T18:23:11;25.60;58.00
58153;DHT22;43967;51.634;5.566;2022-08-02T18:28:12;25.60;58.00
58153;DHT22;43967;51.634;5.566;2022-08-02T18:33:14;25.60;58.20
58153;DHT22;43967;51.634;5.566;2022-08-02T18:38:18;25.60;58.40
58153;DHT22;43967;51.634;5.566;2022-08-02T18:43:19;25.60;58.70
58153;DHT22;43967;51.634;5.566;2022-08-02T18:48:23;25.60;58.80
58153;DHT22;43967;51.634;5.566;2022-08-02T18:53:25;25.60;58.90
58153;DHT22;43967;51.634;5.566;2022-08-02T18:58:26;25.60;59.00
58153;DHT22;43967;51.634;5.566;2022-08-02T19:03:28;25.60;59.10
58153;DHT22;43967;51.634;5.566;2022-08-02T19:08:29;25.60;59.30
58153;DHT22;43967;51.634;5.566;2022-08-02T19:13:30;25.60;59.30
58153;DHT22;43967;51.634;5.566;2022-08-02T19:18:31;25.60;59.50
58153;DHT22;43967;51.634;5.566;2022-08-02T19:23:33;25.60;60.40
58153;DHT22;43967;51.634;5.566;2022-08-02T19:28:34;25.60;59.80
58153;DHT22;43967;51.634;5.566;2022-08-02T19:33:38;25.60;59.80
58153;DHT22;43967;51.634;5.566;2022-08-02T19:38:40;25.60;60.00
58153;DHT22;43967;51.634;5.566;2022-08-02T19:43:41;25.60;60.50
58153;DHT22;43967;51.634;5.566;2022-08-02T19:48:42;25.60;61.00
58153;DHT22;43967;51.634;5.566;2022-08-02T19:53:43;25.60;61.10
58153;DHT22;43967;51.634;5.566;2022-08-02T19:58:45;25.60;61.30
58153;DHT22;43967;51.634;5.566;2022-08-02T20:03:46;25.60;61.50
58153;DHT22;43967;51.634;5.566;2022-08-02T20:08:47;25.60;62.00
58153;DHT22;43967;51.634;5.566;2022-08-02T20:13:48;25.60;62.70
58153;DHT22;43967;51.634;5.566;2022-08-02T20:18:54;25.50;64.00
58153;DHT22;43967;51.634;5.566;2022-08-02T20:23:56;25.40;65.40
58153;DHT22;43967;51.634;5.566;2022-08-02T20:28:57;25.40;66.30
58153;DHT22;43967;51.634;5.566;2022-08-02T20:33:58;25.30;67.30
58153;DHT22;43967;51.634;5.566;2022-08-02T20:39:00;25.20;67.60
58153;DHT22;43967;51.634;5.566;2022-08-02T20:44:03;25.20;67.40
58153;DHT22;43967;51.634;5.566;2022-08-02T20:49:07;25.10;67.20
58153;DHT22;43967;51.634;5.566;2022-08-02T20:54:08;25.00;67.20
58153;DHT22;43967;51.634;5.566;2022-08-02T20:59:09;24.90;67.50
58153;DHT22;43967;51.634;5.566;2022-08-02T21:04:10;24.80;68.00
58153;DHT22;43967;51.634;5.566;2022-08-02T21:09:11;24.60;68.50
58153;DHT22;43967;51.634;5.566;2022-08-02T21:14:12;24.50;68.80
58153;DHT22;43967;51.634;5.566;2022-08-02T21:29:49;24.30;69.60
58153;DHT22;43967;51.634;5.566;2022-08-02T21:34:50;24.40;69.20
58153;DHT22;43967;51.634;5.566;2022-08-02T21:39:51;24.60;68.60
58153;DHT22;43967;51.634;5.566;2022-08-02T21:44:52;24.60;68.90
58153;DHT22;43967;51.634;5.566;2022-08-02T21:49:54;24.80;68.80
58153;DHT22;43967;51.634;5.566;2022-08-02T21:54:55;24.80;68.90
58153;DHT22;43967;51.634;5.566;2022-08-02T21:59:56;24.80;68.30
58153;DHT22;43967;51.634;5.566;2022-08-02T22:04:57;24.90;68.00
58153;DHT22;43967;51.634;5.566;2022-08-02T22:09:58;24.90;67.40
58153;DHT22;43967;51.634;5.566;2022-08-02T22:14:59;24.90;67.50
58153;DHT22;43967;51.634;5.566;2022-08-02T22:20:00;25.00;67.30
58153;DHT22;43967;51.634;5.566;2022-08-02T22:25:02;24.90;67.90
58153;DHT22;43967;51.634;5.566;2022-08-02T22:30:03;24.90;68.00
58153;DHT22;43967;51.634;5.566;2022-08-02T22:35:05;24.80;67.70
58153;DHT22;43967;51.634;5.566;2022-08-02T22:40:06;24.80;67.40
58153;DHT22;43967;51.634;5.566;2022-08-02T22:45:08;24.80;67.40
58153;DHT22;43967;51.634;5.566;2022-08-02T22:50:09;24.80;67.40
58153;DHT22;43967;51.634;5.566;2022-08-02T22:55:10;24.70;67.70
58153;DHT22;43967;51.634;5.566;2022-08-02T23:00:12;24.60;67.90
58153;DHT22;43967;51.634;5.566;2022-08-02T23:05:13;24.60;67.80
58153;DHT22;43967;51.634;5.566;2022-08-02T23:10:14;24.60;67.70
58153;DHT22;43967;51.634;5.566;2022-08-02T23:15:17;24.50;67.80
58153;DHT22;43967;51.634;5.566;2022-08-02T23:20:19;24.60;67.80
58153;DHT22;43967;51.634;5.566;2022-08-02T23:25:20;24.80;67.20
58153;DHT22;43967;51.634;5.566;2022-08-02T23:30:21;24.90;66.80
58153;DHT22;43967;51.634;5.566;2022-08-02T23:35:22;24.90;66.50
58153;DHT22;43967;51.634;5.566;2022-08-02T23:40:23;25.00;66.30
58153;DHT22;43967;51.634;5.566;2022-08-02T23:45:24;25.00;66.10
58153;DHT22;43967;51.634;5.566;2022-08-02T23:50:25;25.00;65.90
58153;DHT22;43967;51.634;5.566;2022-08-02T23:55:26;25.00;65.80
